sensor_id;sensor_type;location;lat;lon;timestamp;P1;durP1;ratioP1;P2;durP2;ratioP2
74347;SDS011;62778;50.406;10.008;2022-08-21T00:00:21;7.90;;;5.07;;
74347;SDS011;62778;50.406;10.008;2022-08-21T00:01:20;7.22;;;4.97;;
74347;SDS011;62778;50.406;10.008;2022-08-21T00:02:18;9.45;;;5.20;;
74347;SDS011;62778;50.406;10.008;2022-08-21T00:03:15;7.55;;;4.90;;
74347;SDS011;62778;50.406;10.008;2022-08-21T00:04:10;7.45;;;4.57;;
74347;SDS011;62778;50.406;10.008;2022-08-21T00:05:06;8.20;;;5.13;;
74347;SDS011;62778;50.406;10.008;2022-08-21T00:06:02;8.70;;;4.55;;
74347;SDS011;62778;50.406;10.008;2022-08-21T00:06:57;7.37;;;4.60;;
74347;SDS011;62778;50.406;10.008;2022-08-21T00:07:53;7.53;;;4.50;;
74347;SDS011;62778;50.406;10.008;2022-08-21T00:08:50;6.80;;;4.37;;
74347;SDS011;62778;50.406;10.008;2022-08-21T00:09:46;9.63;;;4.35;;
74347;SDS011;62778;50.406;10.008;2022-08-21T00:10:42;7.93;;;4.60;;
74347;SDS011;62778;50.406;10.008;2022-08-21T00:11:38;7.45;;;4.50;;
74347;SDS011;62778;50.406;10.008;2022-08-21T00:12:34;7.30;;;4.63;;
74347;SDS011;62778;50.406;10.008;2022-08-21T00:13:29;7.88;;;4.55;;
74347;SDS011;62778;50.406;10.008;2022-08-21T00:14:24;7.53;;;4.50;;
74347;SDS011;62778;50.406;10.008;2022-08-21T00:15:23;7.70;;;4.40;;
74347;SDS011;62778;50.406;10.008;2022-08-21T00:16:21;9.35;;;3.70;;
74347;SDS011;62778;50.406;10.008;2022-08-21T00:17:16;7.03;;;4.07;;
74347;SDS011;62778;50.406;10.008;2022-08-21T00:18:12;8.07;;;4.40;;
74347;SDS011;62778;50.406;10.008;2022-08-21T00:19:08;7.43;;;4.18;;
74347;SDS011;62778;50.406;10.008;2022-08-21T00:20:05;6.87;;;4.60;;
74347;SDS011;62778;50.406;10.008;2022-08-21T00:21:03;7.50;;;4.70;;
74347;SDS011;62778;50.406;10.008;2022-08-21T00:21:59;8.20;;;5.07;;
74347;SDS011;62778;50.406;10.008;2022-08-21T00:22:54;7.53;;;4.50;;
74347;SDS011;62778;50.406;10.008;2022-08-21T00:23:49;7.63;;;4.60;;
74347;SDS011;62778;50.406;10.008;2022-08-21T00:24:45;8.43;;;4.93;;
74347;SDS011;62778;50.406;10.008;2022-08-21T00:25:41;7.37;;;3.97;;
74347;SDS011;62778;50.406;10.008;2022-08-21T00:26:37;7.47;;;4.63;;
74347;SDS011;62778;50.406;10.008;2022-08-21T00:27:32;7.13;;;4.37;;
74347;SDS011;62778;50.406;10.008;2022-08-21T00:28:28;7.07;;;4.82;;
74347;SDS011;62778;50.406;10.008;2022-08-21T00:29:23;7.47;;;4.50;;
74347;SDS011;62778;50.406;10.008;2022-08-21T00:30:19;7.43;;;4.70;;
74347;SDS011;62778;50.406;10.008;2022-08-21T00:31:16;7.53;;;4.53;;
74347;SDS011;62778;50.406;10.008;2022-08-21T00:32:12;7.35;;;4.47;;
74347;SDS011;62778;50.406;10.008;2022-08-21T00:33:14;6.90;;;4.72;;
74347;SDS011;62778;50.406;10.008;2022-08-21T00:34:10;6.70;;;4.50;;
74347;SDS011;62778;50.406;10.008;2022-08-21T00:35:07;6.88;;;4.57;;
74347;SDS011;62778;50.406;10.008;2022-08-21T00:36:04;7.07;;;4.70;;
74347;SDS011;62778;50.406;10.008;2022-08-21T00:36:59;7.83;;;4.80;;
74347;SDS011;62778;50.406;10.008;2022-08-21T00:37:54;6.90;;;4.28;;
74347;SDS011;62778;50.406;10.008;2022-08-21T00:38:50;7.20;;;4.53;;
74347;SDS011;62778;50.406;10.008;2022-08-21T00:39:45;6.53;;;4.23;;
74347;SDS011;62778;50.406;10.008;2022-08-21T00:40:47;7.97;;;4.80;;
74347;SDS011;62778;50.406;10.008;2022-08-21T00:41:47;6.80;;;4.20;;
74347;SDS011;62778;50.406;10.008;2022-08-21T00:42:42;7.87;;;4.47;;
74347;SDS011;62778;50.406;10.008;2022-08-21T00:43:38;7.50;;;4.13;;
74347;SDS011;62778;50.406;10.008;2022-08-21T00:44:34;7.95;;;4.65;;
74347;SDS011;62778;50.406;10.008;2022-08-21T00:45:30;6.80;;;4.27;;
74347;SDS011;62778;50.406;10.008;2022-08-21T00:46:26;7.63;;;4.55;;
74347;SDS011;62778;50.406;10.008;2022-08-21T00:47:22;7.38;;;4.40;;
74347;SDS011;62778;50.406;10.008;2022-08-21T00:48:17;6.47;;;4.00;;
74347;SDS011;62778;50.406;10.008;2022-08-21T00:49:13;7.37;;;4.60;;
74347;SDS011;62778;50.406;10.008;2022-08-21T00:50:09;6.80;;;3.97;;
74347;SDS011;62778;50.406;10.008;2022-08-21T00:51:06;8.00;;;4.35;;
74347;SDS011;62778;50.406;10.008;2022-08-21T00:52:04;7.53;;;4.38;;
74347;SDS011;62778;50.406;10.008;2022-08-21T00:53:01;7.47;;;4.60;;
74347;SDS011;62778;50.406;10.008;2022-08-21T00:53:59;7.65;;;4.47;;
74347;SDS011;62778;50.406;10.008;2022-08-21T00:54:55;7.60;;;4.30;;
74347;SDS011;62778;50.406;10.008;2022-08-21T00:55:53;6.80;;;4.53;;
74347;SDS011;62778;50.406;10.008;2022-08-21T00:56:50;6.47;;;4.32;;
74347;SDS011;62778;50.406;10.008;2022-08-21T00:57:49;7.00;;;4.47;;
74347;SDS011;62778;50.406;10.008;2022-08-21T00:58:46;7.53;;;4.40;;
74347;SDS011;62778;50.406;10.008;2022-08-21T00:59:43;7.22;;;4.20;;
74347;SDS011;62778;50.406;10.008;2022-08-21T01:00:42;6.10;;;3.42;;
74347;SDS011;62778;50.406;10.008;2022-08-21T01:01:38;7.35;;;3.40;;
74347;SDS011;62778;50.406;10.008;2022-08-21T01:02:34;6.43;;;3.73;;
74347;SDS011;62778;50.406;10.008;2022-08-21T01:03:29;7.67;;;3.90;;
74347;SDS011;62778;50.406;10.008;2022-08-21T01:04:25;6.82;;;3.83;;
74347;SDS011;62778;50.406;10.008;2022-08-21T01:05:20;5.97;;;3.23;;
74347;SDS011;62778;50.406;10.008;2022-08-21T01:06:16;6.87;;;3.53;;
74347;SDS011;62778;50.406;10.008;2022-08-21T01:07:12;7.22;;;3.97;;
74347;SDS011;62778;50.406;10.008;2022-08-21T01:08:08;6.88;;;3.85;;
74347;SDS011;62778;50.406;10.008;2022-08-21T01:09:03;8.25;;;4.00;;
74347;SDS011;62778;50.406;10.008;2022-08-21T01:09:59;6.57;;;4.07;;
74347;SDS011;62778;50.406;10.008;2022-08-21T01:10:54;6.67;;;3.80;;
74347;SDS011;62778;50.406;10.008;2022-08-21T01:11:50;6.78;;;3.80;;
74347;SDS011;62778;50.406;10.008;2022-08-21T01:12:46;6.28;;;3.60;;
74347;SDS011;62778;50.406;10.008;2022-08-21T01:13:42;6.30;;;3.27;;
74347;SDS011;62778;50.406;10.008;2022-08-21T01:14:41;7.13;;;3.40;;
74347;SDS011;62778;50.406;10.008;2022-08-21T01:15:38;5.80;;;3.63;;
74347;SDS011;62778;50.406;10.008;2022-08-21T01:16:35;6.30;;;3.33;;
74347;SDS011;62778;50.406;10.008;2022-08-21T01:17:31;6.93;;;3.77;;
74347;SDS011;62778;50.406;10.008;2022-08-21T01:18:27;5.68;;;3.00;;
74347;SDS011;62778;50.406;10.008;2022-08-21T01:19:22;6.20;;;3.43;;
74347;SDS011;62778;50.406;10.008;2022-08-21T01:20:18;6.13;;;3.92;;
74347;SDS011;62778;50.406;10.008;2022-08-21T01:21:20;6.30;;;3.57;;
74347;SDS011;62778;50.406;10.008;2022-08-21T01:22:17;6.38;;;3.90;;
74347;SDS011;62778;50.406;10.008;2022-08-21T01:23:14;6.38;;;3.67;;
74347;SDS011;62778;50.406;10.008;2022-08-21T01:24:10;6.27;;;3.53;;
74347;SDS011;62778;50.406;10.008;2022-08-21T01:25:06;6.57;;;3.90;;
74347;SDS011;62778;50.406;10.008;2022-08-21T01:26:03;6.53;;;3.70;;
74347;SDS011;62778;50.406;10.008;2022-08-21T01:26:59;7.60;;;4.60;;
74347;SDS011;62778;50.406;10.008;2022-08-21T01:27:55;6.70;;;4.10;;
74347;SDS011;62778;50.406;10.008;2022-08-21T01:29:00;6.43;;;4.07;;
74347;SDS011;62778;50.406;10.008;2022-08-21T01:29:59;7.20;;;4.10;;
74347;SDS011;62778;50.406;10.008;2022-08-21T01:30:58;5.82;;;3.30;;
74347;SDS011;62778;50.406;10.008;2022-08-21T01:31:54;6.10;;;3.00;;
74347;SDS011;62778;50.406;10.008;2022-08-21T01:32:50;6.70;;;3.70;;
74347;SDS011;62778;50.406;10.008;2022-08-21T01:33:46;6.40;;;3.35;;
74347;SDS011;62778;50.406;10.008;2022-08-21T01:34:42;7.13;;;4.50;;
74347;SDS011;62778;50.406;10.008;2022-08-21T01:35:38;6.22;;;3.60;;
74347;SDS011;62778;50.406;10.008;2022-08-21T01:36:34;6.60;;;3.80;;
74347;SDS011;62778;50.406;10.008;2022-08-21T01:37:29;6.95;;;4.40;;
74347;SDS011;62778;50.406;10.008;2022-08-21T01:38:24;6.43;;;4.10;;
74347;SDS011;62778;50.406;10.008;2022-08-21T01:39:20;6.00;;;3.50;;
74347;SDS011;62778;50.406;10.008;2022-08-21T01:40:16;6.37;;;3.67;;
74347;SDS011;62778;50.406;10.008;2022-08-21T01:41:12;6.45;;;3.95;;
74347;SDS011;62778;50.406;10.008;2022-08-21T01:42:08;7.40;;;4.72;;
74347;SDS011;62778;50.406;10.008;2022-08-21T01:43:03;7.05;;;4.55;;
74347;SDS011;62778;50.406;10.008;2022-08-21T01:43:59;7.23;;;5.07;;
74347;SDS011;62778;50.406;10.008;2022-08-21T01:44:54;7.60;;;5.23;;
74347;SDS011;62778;50.406;10.008;2022-08-21T01:45:49;9.07;;;5.43;;
74347;SDS011;62778;50.406;10.008;2022-08-21T01:46:45;7.20;;;4.75;;
74347;SDS011;62778;50.406;10.008;2022-08-21T01:47:40;8.10;;;5.60;;
74347;SDS011;62778;50.406;10.008;2022-08-21T01:48:36;8.48;;;5.63;;
74347;SDS011;62778;50.406;10.008;2022-08-21T01:49:32;8.97;;;5.40;;
74347;SDS011;62778;50.406;10.008;2022-08-21T01:50:27;9.17;;;5.67;;
74347;SDS011;62778;50.406;10.008;2022-08-21T01:51:23;10.18;;;5.70;;
74347;SDS011;62778;50.406;10.008;2022-08-21T01:52:18;7.57;;;4.83;;
74347;SDS011;62778;50.406;10.008;2022-08-21T01:53:14;10.15;;;5.53;;
74347;SDS011;62778;50.406;10.008;2022-08-21T01:54:10;9.98;;;5.78;;
74347;SDS011;62778;50.406;10.008;2022-08-21T01:55:06;9.77;;;6.20;;
74347;SDS011;62778;50.406;10.008;2022-08-21T01:56:04;9.75;;;6.15;;
74347;SDS011;62778;50.406;10.008;2022-08-21T01:57:01;7.00;;;4.45;;
74347;SDS011;62778;50.406;10.008;2022-08-21T01:57:57;7.70;;;4.88;;
74347;SDS011;62778;50.406;10.008;2022-08-21T01:58:53;7.77;;;5.30;;
74347;SDS011;62778;50.406;10.008;2022-08-21T01:59:50;9.00;;;5.80;;
74347;SDS011;62778;50.406;10.008;2022-08-21T02:00:46;8.27;;;4.78;;
74347;SDS011;62778;50.406;10.008;2022-08-21T02:01:41;8.13;;;5.10;;
74347;SDS011;62778;50.406;10.008;2022-08-21T02:02:37;8.93;;;6.40;;
74347;SDS011;62778;50.406;10.008;2022-08-21T02:03:33;8.55;;;6.35;;
74347;SDS011;62778;50.406;10.008;2022-08-21T02:04:28;8.07;;;5.45;;
74347;SDS011;62778;50.406;10.008;2022-08-21T02:05:25;8.20;;;4.97;;
74347;SDS011;62778;50.406;10.008;2022-08-21T02:06:20;7.75;;;5.10;;
74347;SDS011;62778;50.406;10.008;2022-08-21T02:07:16;9.37;;;5.90;;
74347;SDS011;62778;50.406;10.008;2022-08-21T02:08:11;8.73;;;5.90;;
74347;SDS011;62778;50.406;10.008;2022-08-21T02:09:07;9.70;;;6.15;;
74347;SDS011;62778;50.406;10.008;2022-08-21T02:10:05;9.18;;;5.88;;
74347;SDS011;62778;50.406;10.008;2022-08-21T02:11:02;10.10;;;5.73;;
74347;SDS011;62778;50.406;10.008;2022-08-21T02:11:57;9.52;;;6.68;;
74347;SDS011;62778;50.406;10.008;2022-08-21T02:12:53;10.02;;;6.70;;
74347;SDS011;62778;50.406;10.008;2022-08-21T02:13:50;10.23;;;6.60;;
74347;SDS011;62778;50.406;10.008;2022-08-21T02:14:45;9.10;;;6.13;;
74347;SDS011;62778;50.406;10.008;2022-08-21T02:15:40;9.00;;;6.23;;
74347;SDS011;62778;50.406;10.008;2022-08-21T02:16:36;9.27;;;6.10;;
74347;SDS011;62778;50.406;10.008;2022-08-21T02:17:38;8.38;;;5.15;;
74347;SDS011;62778;50.406;10.008;2022-08-21T02:18:34;10.03;;;6.07;;
74347;SDS011;62778;50.406;10.008;2022-08-21T02:19:29;9.40;;;6.82;;
74347;SDS011;62778;50.406;10.008;2022-08-21T02:20:29;10.30;;;7.13;;
74347;SDS011;62778;50.406;10.008;2022-08-21T02:21:32;9.80;;;7.03;;
74347;SDS011;62778;50.406;10.008;2022-08-21T02:22:27;9.70;;;6.82;;
74347;SDS011;62778;50.406;10.008;2022-08-21T02:23:23;10.60;;;7.63;;
74347;SDS011;62778;50.406;10.008;2022-08-21T02:24:19;9.52;;;6.65;;
74347;SDS011;62778;50.406;10.008;2022-08-21T02:25:15;9.13;;;6.30;;
74347;SDS011;62778;50.406;10.008;2022-08-21T02:26:11;9.43;;;6.40;;
74347;SDS011;62778;50.406;10.008;2022-08-21T02:27:07;9.60;;;6.38;;
74347;SDS011;62778;50.406;10.008;2022-08-21T02:28:03;10.80;;;7.80;;
74347;SDS011;62778;50.406;10.008;2022-08-21T02:29:01;10.18;;;6.28;;
74347;SDS011;62778;50.406;10.008;2022-08-21T02:29:58;10.27;;;7.05;;
74347;SDS011;62778;50.406;10.008;2022-08-21T02:30:54;12.13;;;8.07;;
74347;SDS011;62778;50.406;10.008;2022-08-21T02:31:50;11.18;;;7.32;;
74347;SDS011;62778;50.406;10.008;2022-08-21T02:32:45;14.17;;;7.53;;
74347;SDS011;62778;50.406;10.008;2022-08-21T02:33:41;11.10;;;8.15;;
74347;SDS011;62778;50.406;10.008;2022-08-21T02:34:36;13.07;;;8.53;;
74347;SDS011;62778;50.406;10.008;2022-08-21T02:35:32;11.07;;;6.93;;
74347;SDS011;62778;50.406;10.008;2022-08-21T02:36:27;10.30;;;6.90;;
74347;SDS011;62778;50.406;10.008;2022-08-21T02:37:23;10.65;;;6.97;;
74347;SDS011;62778;50.406;10.008;2022-08-21T02:38:20;10.47;;;7.17;;
74347;SDS011;62778;50.406;10.008;2022-08-21T02:39:19;10.82;;;6.35;;
74347;SDS011;62778;50.406;10.008;2022-08-21T02:40:15;10.97;;;6.53;;
74347;SDS011;62778;50.406;10.008;2022-08-21T02:41:16;9.98;;;5.78;;
74347;SDS011;62778;50.406;10.008;2022-08-21T02:42:13;10.32;;;7.35;;
74347;SDS011;62778;50.406;10.008;2022-08-21T02:43:08;11.33;;;7.13;;
74347;SDS011;62778;50.406;10.008;2022-08-21T02:44:04;10.07;;;6.80;;
74347;SDS011;62778;50.406;10.008;2022-08-21T02:44:59;9.63;;;6.30;;
74347;SDS011;62778;50.406;10.008;2022-08-21T02:45:55;9.90;;;6.73;;
74347;SDS011;62778;50.406;10.008;2022-08-21T02:46:51;12.10;;;7.60;;
74347;SDS011;62778;50.406;10.008;2022-08-21T02:47:50;11.77;;;8.10;;
74347;SDS011;62778;50.406;10.008;2022-08-21T02:48:47;9.90;;;7.10;;
74347;SDS011;62778;50.406;10.008;2022-08-21T02:49:42;9.95;;;6.88;;
74347;SDS011;62778;50.406;10.008;2022-08-21T02:50:41;11.77;;;7.67;;
74347;SDS011;62778;50.406;10.008;2022-08-21T02:51:38;10.68;;;6.32;;
74347;SDS011;62778;50.406;10.008;2022-08-21T02:52:34;10.80;;;6.40;;
74347;SDS011;62778;50.406;10.008;2022-08-21T02:53:29;8.57;;;5.70;;
74347;SDS011;62778;50.406;10.008;2022-08-21T02:54:25;12.20;;;7.05;;
74347;SDS011;62778;50.406;10.008;2022-08-21T02:55:24;10.30;;;6.37;;
74347;SDS011;62778;50.406;10.008;2022-08-21T02:56:21;8.70;;;5.82;;
74347;SDS011;62778;50.406;10.008;2022-08-21T02:57:17;7.72;;;5.10;;
74347;SDS011;62778;50.406;10.008;2022-08-21T02:58:14;8.37;;;5.70;;
74347;SDS011;62778;50.406;10.008;2022-08-21T02:59:11;10.70;;;7.25;;
74347;SDS011;62778;50.406;10.008;2022-08-21T03:00:06;10.27;;;7.27;;
74347;SDS011;62778;50.406;10.008;2022-08-21T03:01:04;10.55;;;7.50;;
74347;SDS011;62778;50.406;10.008;2022-08-21T03:02:04;10.90;;;6.95;;
74347;SDS011;62778;50.406;10.008;2022-08-21T03:02:59;12.03;;;7.93;;
74347;SDS011;62778;50.406;10.008;2022-08-21T03:03:55;11.80;;;7.95;;
74347;SDS011;62778;50.406;10.008;2022-08-21T03:04:50;12.40;;;8.93;;
74347;SDS011;62778;50.406;10.008;2022-08-21T03:05:45;13.67;;;8.17;;
74347;SDS011;62778;50.406;10.008;2022-08-21T03:06:41;10.93;;;7.10;;
74347;SDS011;62778;50.406;10.008;2022-08-21T03:07:37;11.90;;;7.60;;
74347;SDS011;62778;50.406;10.008;2022-08-21T03:08:33;10.37;;;7.50;;
74347;SDS011;62778;50.406;10.008;2022-08-21T03:09:30;12.63;;;8.10;;
74347;SDS011;62778;50.406;10.008;2022-08-21T03:10:25;10.65;;;7.57;;
74347;SDS011;62778;50.406;10.008;2022-08-21T03:11:21;12.30;;;7.97;;
74347;SDS011;62778;50.406;10.008;2022-08-21T03:12:17;10.15;;;7.53;;
74347;SDS011;62778;50.406;10.008;2022-08-21T03:13:12;12.13;;;8.17;;
74347;SDS011;62778;50.406;10.008;2022-08-21T03:14:08;11.88;;;8.05;;
74347;SDS011;62778;50.406;10.008;2022-08-21T03:15:04;11.97;;;7.97;;
74347;SDS011;62778;50.406;10.008;2022-08-21T03:16:01;10.82;;;7.80;;
74347;SDS011;62778;50.406;10.008;2022-08-21T03:16:56;12.43;;;8.83;;
74347;SDS011;62778;50.406;10.008;2022-08-21T03:17:52;11.57;;;8.33;;
74347;SDS011;62778;50.406;10.008;2022-08-21T03:18:49;11.85;;;7.95;;
74347;SDS011;62778;50.406;10.008;2022-08-21T03:19:44;13.52;;;9.45;;
74347;SDS011;62778;50.406;10.008;2022-08-21T03:20:40;13.03;;;8.97;;
74347;SDS011;62778;50.406;10.008;2022-08-21T03:21:36;12.38;;;8.27;;
74347;SDS011;62778;50.406;10.008;2022-08-21T03:22:32;11.30;;;7.73;;
74347;SDS011;62778;50.406;10.008;2022-08-21T03:23:27;11.90;;;8.10;;
74347;SDS011;62778;50.406;10.008;2022-08-21T03:24:22;11.80;;;8.30;;
74347;SDS011;62778;50.406;10.008;2022-08-21T03:25:17;11.83;;;8.13;;
74347;SDS011;62778;50.406;10.008;2022-08-21T03:26:13;12.18;;;7.93;;
74347;SDS011;62778;50.406;10.008;2022-08-21T03:27:08;12.30;;;8.80;;
74347;SDS011;62778;50.406;10.008;2022-08-21T03:28:05;12.70;;;8.03;;
74347;SDS011;62778;50.406;10.008;2022-08-21T03:29:02;11.25;;;7.53;;
74347;SDS011;62778;50.406;10.008;2022-08-21T03:29:57;11.83;;;7.87;;
74347;SDS011;62778;50.406;10.008;2022-08-21T03:30:53;12.52;;;8.38;;
74347;SDS011;62778;50.406;10.008;2022-08-21T03:31:49;9.93;;;6.97;;
74347;SDS011;62778;50.406;10.008;2022-08-21T03:32:44;12.03;;;7.87;;
74347;SDS011;62778;50.406;10.008;2022-08-21T03:33:40;11.98;;;8.23;;
74347;SDS011;62778;50.406;10.008;2022-08-21T03:34:36;11.27;;;7.70;;
74347;SDS011;62778;50.406;10.008;2022-08-21T03:35:32;12.15;;;9.00;;
74347;SDS011;62778;50.406;10.008;2022-08-21T03:36:28;11.47;;;8.23;;
74347;SDS011;62778;50.406;10.008;2022-08-21T03:37:23;11.47;;;8.63;;
74347;SDS011;62778;50.406;10.008;2022-08-21T03:38:19;12.10;;;8.32;;
74347;SDS011;62778;50.406;10.008;2022-08-21T03:39:15;11.60;;;8.00;;
74347;SDS011;62778;50.406;10.008;2022-08-21T03:40:13;12.38;;;8.52;;
74347;SDS011;62778;50.406;10.008;2022-08-21T03:41:09;12.82;;;8.02;;
74347;SDS011;62778;50.406;10.008;2022-08-21T03:42:05;12.30;;;8.23;;
74347;SDS011;62778;50.406;10.008;2022-08-21T03:43:01;11.88;;;8.25;;
74347;SDS011;62778;50.406;10.008;2022-08-21T03:43:56;11.90;;;8.20;;
74347;SDS011;62778;50.406;10.008;2022-08-21T03:44:51;10.82;;;7.10;;
74347;SDS011;62778;50.406;10.008;2022-08-21T03:45:47;10.80;;;7.57;;
74347;SDS011;62778;50.406;10.008;2022-08-21T03:46:42;12.47;;;8.13;;
74347;SDS011;62778;50.406;10.008;2022-08-21T03:47:37;12.40;;;8.40;;
74347;SDS011;62778;50.406;10.008;2022-08-21T03:48:33;11.00;;;7.70;;
74347;SDS011;62778;50.406;10.008;2022-08-21T03:49:30;10.52;;;7.00;;
74347;SDS011;62778;50.406;10.008;2022-08-21T03:50:26;12.63;;;8.47;;
74347;SDS011;62778;50.406;10.008;2022-08-21T03:51:23;12.13;;;7.75;;
74347;SDS011;62778;50.406;10.008;2022-08-21T03:52:19;13.17;;;8.40;;
74347;SDS011;62778;50.406;10.008;2022-08-21T03:53:15;12.70;;;8.30;;
74347;SDS011;62778;50.406;10.008;2022-08-21T03:54:11;10.88;;;7.53;;
74347;SDS011;62778;50.406;10.008;2022-08-21T03:55:07;11.13;;;7.63;;
74347;SDS011;62778;50.406;10.008;2022-08-21T03:56:02;13.73;;;8.10;;
74347;SDS011;62778;50.406;10.008;2022-08-21T03:56:58;11.95;;;8.23;;
74347;SDS011;62778;50.406;10.008;2022-08-21T03:57:53;14.90;;;9.77;;
74347;SDS011;62778;50.406;10.008;2022-08-21T03:58:49;13.40;;;9.40;;
74347;SDS011;62778;50.406;10.008;2022-08-21T03:59:44;11.07;;;8.40;;
74347;SDS011;62778;50.406;10.008;2022-08-21T04:00:39;11.88;;;7.78;;
74347;SDS011;62778;50.406;10.008;2022-08-21T04:01:35;11.47;;;8.07;;
74347;SDS011;62778;50.406;10.008;2022-08-21T04:02:30;10.90;;;8.00;;
74347;SDS011;62778;50.406;10.008;2022-08-21T04:03:28;11.83;;;8.77;;
74347;SDS011;62778;50.406;10.008;2022-08-21T04:04:23;12.23;;;8.00;;
74347;SDS011;62778;50.406;10.008;2022-08-21T04:05:19;12.20;;;7.97;;
74347;SDS011;62778;50.406;10.008;2022-08-21T04:06:21;11.80;;;7.88;;
74347;SDS011;62778;50.406;10.008;2022-08-21T04:07:17;12.00;;;8.30;;
74347;SDS011;62778;50.406;10.008;2022-08-21T04:08:12;12.70;;;8.70;;
74347;SDS011;62778;50.406;10.008;2022-08-21T04:09:09;11.70;;;8.40;;
74347;SDS011;62778;50.406;10.008;2022-08-21T04:10:05;12.40;;;7.88;;
74347;SDS011;62778;50.406;10.008;2022-08-21T04:11:01;11.77;;;7.90;;
74347;SDS011;62778;50.406;10.008;2022-08-21T04:11:56;12.55;;;7.93;;
74347;SDS011;62778;50.406;10.008;2022-08-21T04:12:53;11.27;;;7.85;;
74347;SDS011;62778;50.406;10.008;2022-08-21T04:13:49;11.27;;;7.40;;
74347;SDS011;62778;50.406;10.008;2022-08-21T04:14:44;11.38;;;7.65;;
74347;SDS011;62778;50.406;10.008;2022-08-21T04:15:40;10.60;;;7.70;;
74347;SDS011;62778;50.406;10.008;2022-08-21T04:16:36;10.73;;;8.07;;
74347;SDS011;62778;50.406;10.008;2022-08-21T04:17:31;13.50;;;8.70;;
74347;SDS011;62778;50.406;10.008;2022-08-21T04:18:26;14.40;;;8.70;;
74347;SDS011;62778;50.406;10.008;2022-08-21T04:19:22;11.47;;;8.00;;
74347;SDS011;62778;50.406;10.008;2022-08-21T04:20:18;11.95;;;7.85;;
74347;SDS011;62778;50.406;10.008;2022-08-21T04:21:14;12.38;;;8.30;;
74347;SDS011;62778;50.406;10.008;2022-08-21T04:22:09;12.57;;;8.23;;
74347;SDS011;62778;50.406;10.008;2022-08-21T04:23:05;12.75;;;8.77;;
74347;SDS011;62778;50.406;10.008;2022-08-21T04:24:01;11.20;;;8.23;;
74347;SDS011;62778;50.406;10.008;2022-08-21T04:24:57;12.97;;;8.67;;
74347;SDS011;62778;50.406;10.008;2022-08-21T04:25:52;12.43;;;8.40;;
74347;SDS011;62778;50.406;10.008;2022-08-21T04:26:48;10.60;;;6.50;;
74347;SDS011;62778;50.406;10.008;2022-08-21T04:27:44;13.13;;;8.17;;
74347;SDS011;62778;50.406;10.008;2022-08-21T04:28:40;12.10;;;7.65;;
74347;SDS011;62778;50.406;10.008;2022-08-21T04:29:36;11.73;;;7.25;;
74347;SDS011;62778;50.406;10.008;2022-08-21T04:30:31;10.83;;;6.70;;
74347;SDS011;62778;50.406;10.008;2022-08-21T04:31:27;11.18;;;7.55;;
74347;SDS011;62778;50.406;10.008;2022-08-21T04:32:23;10.43;;;6.70;;
74347;SDS011;62778;50.406;10.008;2022-08-21T04:33:20;8.68;;;5.75;;
74347;SDS011;62778;50.406;10.008;2022-08-21T04:34:15;10.90;;;7.15;;
74347;SDS011;62778;50.406;10.008;2022-08-21T04:35:11;12.33;;;6.70;;
74347;SDS011;62778;50.406;10.008;2022-08-21T04:36:07;9.65;;;5.90;;
74347;SDS011;62778;50.406;10.008;2022-08-21T04:37:03;9.10;;;6.00;;
74347;SDS011;62778;50.406;10.008;2022-08-21T04:37:58;10.32;;;6.10;;
74347;SDS011;62778;50.406;10.008;2022-08-21T04:38:54;8.73;;;5.80;;
74347;SDS011;62778;50.406;10.008;2022-08-21T04:39:49;8.50;;;5.63;;
74347;SDS011;62778;50.406;10.008;2022-08-21T04:40:44;8.97;;;5.37;;
74347;SDS011;62778;50.406;10.008;2022-08-21T04:41:40;10.25;;;5.43;;
74347;SDS011;62778;50.406;10.008;2022-08-21T04:42:41;8.90;;;5.50;;
74347;SDS011;62778;50.406;10.008;2022-08-21T04:43:39;9.30;;;5.40;;
74347;SDS011;62778;50.406;10.008;2022-08-21T04:44:34;9.73;;;5.38;;
74347;SDS011;62778;50.406;10.008;2022-08-21T04:45:34;9.67;;;5.80;;
74347;SDS011;62778;50.406;10.008;2022-08-21T04:46:34;8.82;;;5.82;;
74347;SDS011;62778;50.406;10.008;2022-08-21T04:47:29;8.48;;;5.55;;
74347;SDS011;62778;50.406;10.008;2022-08-21T04:48:25;9.13;;;5.97;;
74347;SDS011;62778;50.406;10.008;2022-08-21T04:49:20;8.70;;;5.50;;
74347;SDS011;62778;50.406;10.008;2022-08-21T04:50:15;11.00;;;5.80;;
74347;SDS011;62778;50.406;10.008;2022-08-21T04:51:17;9.07;;;5.70;;
74347;SDS011;62778;50.406;10.008;2022-08-21T04:52:17;9.50;;;5.90;;
74347;SDS011;62778;50.406;10.008;2022-08-21T04:54:21;8.17;;;5.00;;
74347;SDS011;62778;50.406;10.008;2022-08-21T04:55:17;10.82;;;5.93;;
74347;SDS011;62778;50.406;10.008;2022-08-21T04:56:14;9.00;;;5.40;;
74347;SDS011;62778;50.406;10.008;2022-08-21T04:57:13;8.88;;;5.40;;
74347;SDS011;62778;50.406;10.008;2022-08-21T04:58:10;8.18;;;5.60;;
74347;SDS011;62778;50.406;10.008;2022-08-21T04:59:10;8.33;;;5.53;;
74347;SDS011;62778;50.406;10.008;2022-08-21T05:00:08;9.20;;;5.72;;
74347;SDS011;62778;50.406;10.008;2022-08-21T05:01:06;8.27;;;5.30;;
74347;SDS011;62778;50.406;10.008;2022-08-21T05:02:04;8.30;;;5.47;;
74347;SDS011;62778;50.406;10.008;2022-08-21T05:03:00;8.10;;;5.45;;
74347;SDS011;62778;50.406;10.008;2022-08-21T05:03:58;9.77;;;5.85;;
74347;SDS011;62778;50.406;10.008;2022-08-21T05:04:54;9.15;;;5.80;;
74347;SDS011;62778;50.406;10.008;2022-08-21T05:05:50;9.15;;;5.45;;
74347;SDS011;62778;50.406;10.008;2022-08-21T05:06:46;9.50;;;6.10;;
74347;SDS011;62778;50.406;10.008;2022-08-21T05:07:42;10.13;;;6.18;;
74347;SDS011;62778;50.406;10.008;2022-08-21T05:08:38;8.68;;;5.70;;
74347;SDS011;62778;50.406;10.008;2022-08-21T05:09:34;9.27;;;5.80;;
74347;SDS011;62778;50.406;10.008;2022-08-21T05:10:30;9.80;;;5.93;;
74347;SDS011;62778;50.406;10.008;2022-08-21T05:11:26;9.02;;;5.53;;
74347;SDS011;62778;50.406;10.008;2022-08-21T05:12:21;9.80;;;5.90;;
74347;SDS011;62778;50.406;10.008;2022-08-21T05:13:17;8.67;;;5.47;;
74347;SDS011;62778;50.406;10.008;2022-08-21T05:14:13;9.35;;;6.07;;
74347;SDS011;62778;50.406;10.008;2022-08-21T05:15:08;8.93;;;5.77;;
74347;SDS011;62778;50.406;10.008;2022-08-21T05:16:07;8.40;;;5.75;;
74347;SDS011;62778;50.406;10.008;2022-08-21T05:17:02;8.70;;;5.53;;
74347;SDS011;62778;50.406;10.008;2022-08-21T05:17:58;7.55;;;5.00;;
74347;SDS011;62778;50.406;10.008;2022-08-21T05:18:53;11.90;;;6.33;;
74347;SDS011;62778;50.406;10.008;2022-08-21T05:19:49;8.90;;;5.50;;
74347;SDS011;62778;50.406;10.008;2022-08-21T05:20:44;9.13;;;5.70;;
74347;SDS011;62778;50.406;10.008;2022-08-21T05:21:44;9.35;;;5.70;;
74347;SDS011;62778;50.406;10.008;2022-08-21T05:22:42;8.63;;;5.50;;
74347;SDS011;62778;50.406;10.008;2022-08-21T05:23:37;8.53;;;5.37;;
74347;SDS011;62778;50.406;10.008;2022-08-21T05:24:32;9.85;;;5.70;;
74347;SDS011;62778;50.406;10.008;2022-08-21T05:25:28;8.57;;;5.80;;
74347;SDS011;62778;50.406;10.008;2022-08-21T05:26:24;8.73;;;6.00;;
74347;SDS011;62778;50.406;10.008;2022-08-21T05:27:19;8.25;;;5.40;;
74347;SDS011;62778;50.406;10.008;2022-08-21T05:28:14;9.10;;;5.83;;
74347;SDS011;62778;50.406;10.008;2022-08-21T05:29:10;8.70;;;5.77;;
74347;SDS011;62778;50.406;10.008;2022-08-21T05:30:06;8.75;;;5.22;;
74347;SDS011;62778;50.406;10.008;2022-08-21T05:31:02;10.18;;;5.53;;
74347;SDS011;62778;50.406;10.008;2022-08-21T05:31:58;8.97;;;5.60;;
74347;SDS011;62778;50.406;10.008;2022-08-21T05:32:59;8.53;;;5.13;;